Terminal Aerodrome Forecast
Issued by NWS Paducah, KY

Home | Current Version | Previous Version | Text Only | Print | Product List | Glossary Off
Versions: 1 2 3 4 5 6 7 8 9 10 11 12 13 14 15 16 17 18 19 20 21 22 23

000
FTUS43 KPAH 011100 CCA
TAFEVV
TAF COR
KEVV 011143Z 0112/0212 20010KT P6SM SCT010 BKN025
      TEMPO 0112/0115 5SM -SHRA BKN010
     FM011500 21013G20KT P6SM SCT030 BKN150
     FM012300 21012KT P6SM BKN150
     FM020500 21006KT P6SM SCT030 BKN060=

USA.gov is the U.S. government's official web portal to all federal, state and local government web resources and services.